Time;durP1;ratioP1;P1;durP2;ratioP2;P2;SDS_P1;SDS_P2;PMS_P1;PMS_P2;Temp;Humidity;BMP_temperature;BMP_pressure;BME280_temperature;BME280_humidity;BME280_pressure;Samples;Min_cycle;Max_cycle;Signal;HPM_P1;HPM_P2
2023/06/04 00:00:09;;;;;;;4.90;1.95;;;;;;;12.32;59.88;102037.00;4965954;28;20416;-84
2023/06/04 00:02:35;;;;;;;3.13;1.92;;;;;;;12.27;61.17;102025.50;4952480;28;20455;-84
2023/06/04 00:05:00;;;;;;;5.57;1.83;;;;;;;12.21;61.36;102029.44;4951084;29;20506;-85
2023/06/04 00:07:26;;;;;;;5.78;2.00;;;;;;;12.22;61.36;102023.06;4951177;28;20256;-84
2023/06/04 00:09:53;;;;;;;3.78;1.90;;;;;;;12.19;62.50;102035.00;4950614;28;20376;-84
2023/06/04 00:12:18;;;;;;;3.67;1.75;;;;;;;12.06;62.57;102012.16;4949047;28;20199;-84
2023/06/04 00:14:44;;;;;;;4.05;1.80;;;;;;;12.11;62.41;102022.78;4951690;28;20141;-84
2023/06/04 00:17:10;;;;;;;3.70;1.73;;;;;;;12.08;62.67;102021.16;4964325;28;20042;-84
2023/06/04 00:19:38;;;;;;;6.68;2.28;;;;;;;12.09;61.05;102016.56;4953733;28;20483;-84
2023/06/04 00:22:06;;;;;;;2.72;1.90;;;;;;;12.03;62.35;102015.09;4949811;29;20053;-85
2023/06/04 00:24:31;;;;;;;3.72;1.83;;;;;;;12.06;61.96;102020.34;4950236;28;20043;-85
2023/06/04 00:26:57;;;;;;;3.47;2.08;;;;;;;12.04;63.01;102013.25;4951894;28;20039;-84
2023/06/04 00:29:23;;;;;;;3.75;1.90;;;;;;;12.02;62.98;102026.06;4950662;28;20039;-84
2023/06/04 00:31:48;;;;;;;3.35;1.88;;;;;;;11.98;62.06;102019.91;4950521;28;20395;-85
2023/06/04 00:34:14;;;;;;;4.53;2.13;;;;;;;11.98;61.93;102018.09;4935030;29;20491;-84
2023/06/04 00:36:40;;;;;;;3.42;2.05;;;;;;;11.99;62.42;102014.38;4951968;28;20027;-84
2023/06/04 00:39:05;;;;;;;3.83;1.80;;;;;;;11.94;61.51;102010.19;4965740;28;20502;-84
2023/06/04 00:41:30;;;;;;;4.68;1.95;;;;;;;11.99;61.61;102021.69;4966179;28;20034;-84
2023/06/04 00:43:56;;;;;;;6.20;1.90;;;;;;;11.96;61.54;102017.28;4969443;28;20038;-85
2023/06/04 00:46:24;;;;;;;4.13;1.67;;;;;;;11.87;63.56;102011.50;4962221;28;20030;-84
2023/06/04 00:48:51;;;;;;;3.38;2.05;;;;;;;11.85;63.57;102008.88;4969815;28;20054;-85
2023/06/04 00:51:16;;;;;;;2.13;1.85;;;;;;;11.89;62.21;102012.28;4949869;28;20384;-84
2023/06/04 00:53:42;;;;;;;6.10;1.90;;;;;;;11.88;62.76;102011.41;4950122;28;20039;-84
2023/06/04 00:56:07;;;;;;;3.38;2.13;;;;;;;11.84;63.89;102014.41;4952346;28;20394;-84
2023/06/04 00:58:38;;;;;;;3.13;1.70;;;;;;;11.78;63.37;102012.88;4967440;28;20041;-84
2023/06/04 01:01:07;;;;;;;3.90;2.03;;;;;;;11.74;63.03;102016.75;4952055;28;20034;-84
2023/06/04 01:03:37;;;;;;;4.00;1.88;;;;;;;11.71;62.93;102011.50;4969682;28;20039;-85
2023/06/04 01:06:39;;;;;;;5.05;2.13;;;;;;;11.69;62.89;102016.16;4956292;28;20042;-85
2023/06/04 01:09:05;;;;;;;2.53;1.90;;;;;;;11.64;64.31;102008.25;4934908;28;20672;-85
2023/06/04 01:11:32;;;;;;;2.85;1.95;;;;;;;11.63;63.88;102011.06;4957708;28;20035;-84
2023/06/04 01:13:57;;;;;;;4.18;1.67;;;;;;;11.62;65.45;102020.22;4969911;28;20125;-83
2023/06/04 01:16:23;;;;;;;3.78;2.13;;;;;;;11.56;63.87;102024.16;4946659;28;20133;-84
2023/06/04 01:18:51;;;;;;;4.80;2.00;;;;;;;11.54;64.61;102020.66;4963382;28;20391;-83
2023/06/04 01:21:18;;;;;;;5.97;1.67;;;;;;;11.55;64.65;102025.13;4969743;28;20038;-84
2023/06/04 01:23:58;;;;;;;2.33;1.92;;;;;;;11.49;64.51;102020.91;4970702;28;20051;-85
2023/06/04 01:26:28;;;;;;;5.13;2.30;;;;;;;11.50;65.71;102021.78;4968703;28;20031;-84
2023/06/04 01:28:56;;;;;;;5.72;1.80;;;;;;;11.47;64.97;102019.22;4955105;28;20035;-84
2023/06/04 01:31:22;;;;;;;4.00;1.88;;;;;;;11.44;64.04;102012.13;4951676;28;20047;-84
2023/06/04 01:33:52;;;;;;;6.15;2.22;;;;;;;11.43;64.74;102015.84;4950491;29;20083;-85
2023/06/04 01:36:18;;;;;;;6.43;1.98;;;;;;;11.46;64.84;102025.66;4951620;28;20039;-84
2023/06/04 01:38:43;;;;;;;3.30;2.20;;;;;;;11.39;64.78;102014.25;4964473;28;20039;-84
2023/06/04 01:41:09;;;;;;;6.10;2.00;;;;;;;11.35;65.04;102019.97;4965768;28;20067;-84
2023/06/04 01:43:35;;;;;;;2.90;2.03;;;;;;;11.31;64.86;102013.78;4952055;28;20365;-84
2023/06/04 01:46:01;;;;;;;4.57;2.15;;;;;;;11.26;66.28;102015.03;4963472;28;20036;-84
2023/06/04 01:48:26;;;;;;;3.92;1.70;;;;;;;11.21;65.95;102018.88;4965797;28;20450;-84
2023/06/04 01:50:52;;;;;;;4.78;2.10;;;;;;;11.23;65.84;102024.25;4953095;28;20119;-84
2023/06/04 01:53:17;;;;;;;4.38;2.00;;;;;;;11.16;66.46;102026.44;4966197;28;20071;-84
2023/06/04 01:55:44;;;;;;;3.63;1.83;;;;;;;11.12;66.46;102018.53;4965739;28;20086;-84
2023/06/04 01:58:09;;;;;;;5.97;2.17;;;;;;;11.06;66.11;102014.31;4932814;28;20027;-84
2023/06/04 02:00:34;;;;;;;4.28;2.10;;;;;;;11.04;67.07;102013.50;4953947;28;20133;-84
2023/06/04 02:03:00;;;;;;;5.28;2.08;;;;;;;11.08;66.75;102023.25;4965681;28;20097;-83
2023/06/04 02:05:26;;;;;;;3.42;2.33;;;;;;;11.00;66.68;102020.06;4956305;28;20475;-84
2023/06/04 02:07:51;;;;;;;2.97;1.90;;;;;;;10.95;66.91;102019.44;4950043;28;20479;-84
2023/06/04 02:10:19;;;;;;;5.22;2.33;;;;;;;10.94;66.96;102020.41;4950524;28;20043;-84
2023/06/04 02:13:04;;;;;;;3.25;1.92;;;;;;;10.89;65.94;102015.22;4952848;28;20029;-84
2023/06/04 02:15:31;;;;;;;2.40;1.92;;;;;;;10.86;66.14;102015.38;4966091;28;20137;-84
2023/06/04 02:17:59;;;;;;;2.78;1.70;;;;;;;10.82;66.33;102010.19;4949134;29;20035;-84
2023/06/04 02:20:28;;;;;;;3.38;2.22;;;;;;;10.80;67.85;102014.84;4965296;28;20042;-85
2023/06/04 02:22:54;;;;;;;3.53;1.85;;;;;;;10.72;66.08;102002.56;4950223;28;20062;-85
2023/06/04 02:25:20;;;;;;;10.82;2.20;;;;;;;10.76;67.40;102013.25;4949201;28;20058;-84
2023/06/04 02:27:46;;;;;;;4.32;2.10;;;;;;;10.68;67.67;102010.97;4948565;29;20039;-84
2023/06/04 02:30:11;;;;;;;4.22;2.10;;;;;;;10.66;67.31;102012.88;4949111;28;20506;-84
2023/06/04 02:32:37;;;;;;;3.40;2.30;;;;;;;10.62;68.23;102009.44;4945759;29;20039;-84
2023/06/04 02:35:03;;;;;;;3.42;2.28;;;;;;;10.56;69.08;102006.19;4948278;28;20043;-84
2023/06/04 02:37:29;;;;;;;3.13;2.00;;;;;;;10.59;68.09;102014.19;4952538;28;20027;-84
2023/06/04 02:39:55;;;;;;;2.63;2.00;;;;;;;10.59;67.80;102016.91;4954225;28;20042;-84
2023/06/04 02:42:21;;;;;;;5.05;2.17;;;;;;;10.59;67.70;102011.47;4968363;28;20038;-84
2023/06/04 02:44:46;;;;;;;2.90;2.20;;;;;;;10.58;68.67;102018.72;4954748;28;20485;-84
2023/06/04 02:47:11;;;;;;;7.32;2.03;;;;;;;10.55;67.67;102018.91;4954194;28;20450;-84
2023/06/04 02:49:37;;;;;;;4.65;2.40;;;;;;;10.47;69.23;102013.00;4936540;29;20043;-84
2023/06/04 02:52:02;;;;;;;4.82;2.35;;;;;;;10.47;69.73;102024.75;4968134;28;20062;-84
2023/06/04 02:54:28;;;;;;;5.45;2.30;;;;;;;10.38;69.45;102019.81;4953012;28;20129;-84
2023/06/04 02:56:53;;;;;;;4.93;2.53;;;;;;;10.35;68.54;102019.97;4965537;28;20158;-84
2023/06/04 02:59:19;;;;;;;5.43;2.05;;;;;;;10.35;68.64;102022.69;4970733;28;20489;-85
2023/06/04 03:01:44;;;;;;;4.75;2.28;;;;;;;10.36;68.71;102023.56;4968063;28;20035;-84
2023/06/04 03:04:15;;;;;;;2.80;2.10;;;;;;;10.28;69.68;102013.09;4972088;28;20061;-84
2023/06/04 03:06:44;;;;;;;4.05;2.38;;;;;;;10.33;68.52;102021.88;4971597;28;20041;-84
2023/06/04 03:09:11;;;;;;;3.15;2.20;;;;;;;10.27;68.96;102022.22;4970943;28;20026;-84
2023/06/04 03:11:36;;;;;;;5.22;2.35;;;;;;;10.27;69.87;102021.34;4970156;28;20042;-84
2023/06/04 03:14:02;;;;;;;5.55;2.17;;;;;;;10.22;69.50;102019.69;4971558;28;20026;-84
2023/06/04 03:16:27;;;;;;;5.53;2.10;;;;;;;10.20;70.10;102027.03;4960124;28;20048;-84
2023/06/04 03:18:53;;;;;;;4.07;2.10;;;;;;;10.18;69.49;102026.25;4967957;28;20491;-83
2023/06/04 03:21:18;;;;;;;3.05;2.42;;;;;;;10.10;70.88;102016.72;4952235;29;20123;-84
2023/06/04 03:23:43;;;;;;;4.90;1.73;;;;;;;10.09;70.34;102018.56;4951731;28;20145;-84
2023/06/04 03:26:12;;;;;;;7.32;2.42;;;;;;;10.05;70.77;102014.25;4951375;28;20078;-84
2023/06/04 03:28:38;;;;;;;6.22;2.10;;;;;;;10.01;69.94;102014.47;4952107;28;20051;-84
2023/06/04 03:31:04;;;;;;;4.38;2.00;;;;;;;9.97;70.05;102013.75;4961506;28;20109;-84
2023/06/04 03:33:30;;;;;;;3.38;2.15;;;;;;;10.02;69.50;102019.84;4951859;29;20059;-84
2023/06/04 03:35:58;;;;;;;4.15;1.95;;;;;;;9.96;70.93;102009.28;4952259;29;20046;-84
2023/06/04 03:38:25;;;;;;;6.45;2.30;;;;;;;9.99;69.40;102014.56;4951905;29;20062;-84
2023/06/04 03:40:52;;;;;;;3.78;2.30;;;;;;;9.92;71.72;102007.69;4956088;28;20037;-84
2023/06/04 03:43:21;;;;;;;4.68;2.47;;;;;;;9.95;71.86;102021.13;4970638;28;20058;-84
2023/06/04 03:45:50;;;;;;;4.90;2.35;;;;;;;9.92;71.48;102014.00;4951797;28;20035;-84
2023/06/04 03:48:16;;;;;;;3.05;2.13;;;;;;;9.91;71.25;102016.78;4967637;28;20031;-83
2023/06/04 03:50:45;;;;;;;6.75;2.42;;;;;;;9.94;71.02;102022.09;4951251;28;20122;-84
2023/06/04 03:53:11;;;;;;;5.70;2.60;;;;;;;9.91;72.16;102012.25;4967238;28;20043;-84
2023/06/04 03:55:37;;;;;;;5.13;2.35;;;;;;;9.94;71.39;102016.66;4967551;28;20038;-83
2023/06/04 03:58:04;;;;;;;4.07;2.15;;;;;;;9.89;71.60;102013.28;4970250;28;20053;-84
2023/06/04 04:00:29;;;;;;;3.58;1.98;;;;;;;9.87;73.77;102016.06;4968874;28;20035;-84
2023/06/04 04:02:58;;;;;;;4.55;2.10;;;;;;;9.89;70.89;102016.88;4983838;28;20042;-84
2023/06/04 04:05:28;;;;;;;7.05;2.25;;;;;;;9.89;70.96;102013.28;4951562;28;20074;-84
2023/06/04 04:07:54;;;;;;;4.72;1.90;;;;;;;9.93;70.27;102014.88;4951688;29;20031;-83
2023/06/04 04:10:24;;;;;;;2.90;1.92;;;;;;;9.96;70.28;102021.03;4960072;28;20047;-84
2023/06/04 04:12:51;;;;;;;5.25;2.65;;;;;;;9.99;70.64;102021.84;4950453;29;20035;-83
2023/06/04 04:15:18;;;;;;;2.78;2.20;;;;;;;9.96;70.95;102021.03;4951372;28;20038;-83
2023/06/04 04:17:44;;;;;;;2.10;1.90;;;;;;;10.01;71.64;102025.34;4969328;28;20325;-84
2023/06/04 04:20:10;;;;;;;3.75;2.30;;;;;;;9.97;72.28;102013.75;4970598;28;20133;-84
2023/06/04 04:22:43;;;;;;;3.67;2.17;;;;;;;9.99;71.25;102020.00;4962704;28;20047;-84
2023/06/04 04:25:11;;;;;;;4.93;2.42;;;;;;;9.97;70.83;102025.50;4935136;29;20046;-83
2023/06/04 04:27:40;;;;;;;5.07;3.20;;;;;;;10.06;70.61;102020.56;4937658;28;20043;-84
2023/06/04 04:30:08;;;;;;;4.50;2.22;;;;;;;10.07;72.27;102016.88;4952888;28;20106;-83
2023/06/04 04:32:33;;;;;;;4.20;2.10;;;;;;;10.11;70.60;102011.19;4969117;28;20034;-84
2023/06/04 04:35:00;;;;;;;2.50;2.13;;;;;;;10.12;70.35;102013.00;4954005;28;20038;-83
2023/06/04 04:37:31;;;;;;;;;;;;;;;10.24;68.88;102019.66;4970522;28;20474;-83
2023/06/04 04:39:57;;;;;;;9.07;2.53;;;;;;;10.20;70.24;102021.59;4963921;28;19929;-84
2023/06/04 04:42:25;;;;;;;5.18;2.05;;;;;;;10.23;70.68;102024.16;4965554;28;20525;-83
2023/06/04 04:44:51;;;;;;;3.42;2.55;;;;;;;10.27;70.21;102024.94;4965952;28;20123;-82
2023/06/04 04:47:18;;;;;;;7.30;2.33;;;;;;;10.31;71.09;102028.38;4964491;28;20073;-83
2023/06/04 04:49:44;;;;;;;4.35;2.90;;;;;;;10.29;71.63;102020.28;4969928;28;20507;-84
2023/06/04 04:52:09;;;;;;;5.18;2.92;;;;;;;10.32;71.64;102031.00;4970259;28;20039;-84
2023/06/04 04:54:37;;;;;;;8.00;2.65;;;;;;;10.34;71.14;102020.91;4963746;28;20070;-84
2023/06/04 04:57:03;;;;;;;4.38;3.00;;;;;;;10.38;70.76;102025.25;4948967;28;20464;-84
2023/06/04 04:59:28;;;;;;;5.20;2.58;;;;;;;10.44;72.00;102029.47;4965575;28;20057;-84
2023/06/04 05:01:57;;;;;;;3.85;2.30;;;;;;;10.53;71.24;102036.28;4950831;28;20026;-83
2023/06/04 05:04:22;;;;;;;5.47;2.88;;;;;;;10.53;72.01;102037.16;4968019;28;20046;-83
2023/06/04 05:06:47;;;;;;;6.47;2.50;;;;;;;10.60;71.94;102038.59;4953595;28;20117;-84
2023/06/04 05:09:13;;;;;;;5.03;2.83;;;;;;;10.58;71.79;102028.75;4968170;28;20332;-83
2023/06/04 05:11:38;;;;;;;5.35;2.67;;;;;;;10.66;70.55;102034.66;4968873;28;20348;-83
2023/06/04 05:14:05;;;;;;;6.43;3.03;;;;;;;10.68;70.96;102032.75;4969084;28;20031;-83
2023/06/04 05:16:31;;;;;;;4.78;3.33;;;;;;;10.74;70.50;102032.41;4966806;28;20031;-83
2023/06/04 05:18:57;;;;;;;5.82;2.55;;;;;;;10.78;69.96;102036.72;4965543;28;20095;-83
2023/06/04 05:21:25;;;;;;;5.68;2.80;;;;;;;10.87;70.40;102043.53;4965698;28;20031;-84
2023/06/04 05:23:56;;;;;;;4.95;2.85;;;;;;;10.89;71.26;102038.84;4960357;28;20062;-83
2023/06/04 05:26:25;;;;;;;3.95;2.55;;;;;;;10.96;71.04;102043.91;4967726;28;20122;-83
2023/06/04 05:28:52;;;;;;;5.20;2.70;;;;;;;11.02;69.98;102045.41;4964809;28;20024;-84
2023/06/04 05:31:18;;;;;;;5.90;2.40;;;;;;;11.08;69.69;102050.50;4954503;28;20093;-83
2023/06/04 05:33:44;;;;;;;4.82;2.88;;;;;;;11.14;69.35;102038.38;4950651;28;20031;-83
2023/06/04 05:36:14;;;;;;;4.38;2.50;;;;;;;11.17;70.45;102038.22;4949293;29;20042;-83
2023/06/04 05:38:46;;;;;;;;;;;;;;;11.26;68.55;102045.00;4954029;28;20035;-83
2023/06/04 05:41:14;;;;;;;6.32;2.85;;;;;;;11.29;69.52;102045.72;4967919;28;19913;-83
2023/06/04 05:43:44;;;;;;;6.05;3.00;;;;;;;11.33;71.24;102040.94;4967761;28;20450;-83
2023/06/04 05:46:10;;;;;;;4.43;2.80;;;;;;;11.35;69.83;102034.44;4962136;28;20522;-83
2023/06/04 05:48:36;;;;;;;4.55;2.60;;;;;;;11.40;69.89;102035.06;4965259;28;20042;-83
2023/06/04 05:51:02;;;;;;;5.00;2.78;;;;;;;11.51;71.11;102042.63;4964924;28;20035;-83
2023/06/04 05:53:27;;;;;;;3.72;2.45;;;;;;;11.53;69.81;102037.97;4966862;28;20035;-84
2023/06/04 05:55:52;;;;;;;6.07;2.45;;;;;;;11.60;69.37;102039.38;4951763;28;20046;-84
2023/06/04 05:58:18;;;;;;;5.63;2.83;;;;;;;11.65;69.54;102039.09;4966140;28;20098;-83
2023/06/04 06:00:44;;;;;;;5.47;3.03;;;;;;;11.68;68.06;102037.09;4949018;28;20054;-83
2023/06/04 06:03:09;;;;;;;4.18;1.95;;;;;;;11.79;68.19;102036.44;4965096;28;20039;-84
2023/06/04 06:05:40;;;;;;;4.63;2.85;;;;;;;11.86;68.44;102042.47;4948450;28;20238;-83
2023/06/04 06:08:06;;;;;;;4.97;2.83;;;;;;;11.93;66.83;102052.03;4932705;29;20061;-85
2023/06/04 06:10:32;;;;;;;3.70;2.75;;;;;;;11.97;66.65;102046.31;4950998;28;20027;-82
2023/06/04 06:12:57;;;;;;;5.25;2.60;;;;;;;12.06;67.36;102046.75;4955337;28;20232;-83
2023/06/04 06:15:23;;;;;;;4.22;2.40;;;;;;;12.09;67.49;102049.31;4955475;28;20371;-83
2023/06/04 06:17:49;;;;;;;6.30;2.90;;;;;;;12.17;68.37;102055.16;4951659;28;20152;-83
2023/06/04 06:20:17;;;;;;;5.72;2.85;;;;;;;12.19;66.36;102043.19;4952674;29;20512;-84
2023/06/04 06:22:44;;;;;;;3.85;2.22;;;;;;;12.27;67.05;102050.06;4944308;29;20039;-84
2023/06/04 06:25:12;;;;;;;4.65;2.70;;;;;;;12.38;66.81;102053.00;4968360;28;20035;-84
2023/06/04 06:27:42;;;;;;;5.85;2.35;;;;;;;12.43;65.99;102054.47;4940614;29;20031;-83
2023/06/04 06:30:08;;;;;;;3.03;2.35;;;;;;;12.52;65.50;102051.19;4968343;28;20034;-84
2023/06/04 06:32:35;;;;;;;4.35;2.15;;;;;;;12.62;64.50;102056.94;4952169;28;20035;-84
2023/06/04 06:35:01;;;;;;;4.53;2.38;;;;;;;12.70;64.58;102056.50;4952731;29;20155;-83
2023/06/04 06:37:26;;;;;;;5.50;2.92;;;;;;;12.77;64.30;102060.56;4952110;29;20307;-83
2023/06/04 06:39:51;;;;;;;3.85;2.78;;;;;;;12.85;65.36;102058.25;4953126;28;20042;-83
2023/06/04 06:42:18;;;;;;;3.83;2.55;;;;;;;12.92;65.88;102056.91;4955612;28;20093;-84
2023/06/04 06:44:45;;;;;;;4.13;2.40;;;;;;;13.00;63.79;102059.13;4952068;29;20352;-84
2023/06/04 06:47:13;;;;;;;7.20;2.97;;;;;;;13.06;63.83;102056.03;4952272;28;20149;-84
2023/06/04 06:49:39;;;;;;;6.57;2.97;;;;;;;13.14;61.72;102059.13;4953718;28;20148;-84
2023/06/04 06:52:05;;;;;;;5.47;2.63;;;;;;;13.23;62.66;102069.50;4952459;29;20054;-83
2023/06/04 06:54:30;;;;;;;4.43;2.60;;;;;;;13.28;63.69;102066.47;4953391;29;20035;-84
2023/06/04 06:56:55;;;;;;;4.85;2.70;;;;;;;13.37;61.04;102057.69;4952687;29;20043;-84
2023/06/04 06:59:21;;;;;;;8.43;2.80;;;;;;;13.48;59.92;102065.22;4967974;28;20096;-83
2023/06/04 07:01:47;;;;;;;6.07;2.83;;;;;;;13.55;60.61;102065.69;4952277;28;20078;-83
2023/06/04 07:04:12;;;;;;;3.20;2.70;;;;;;;13.61;61.30;102063.41;4952072;29;20362;-83
2023/06/04 07:06:38;;;;;;;5.60;2.42;;;;;;;13.65;59.83;102066.81;4966865;28;20035;-84
2023/06/04 07:09:05;;;;;;;3.60;2.53;;;;;;;13.79;60.45;102078.59;4951529;29;20098;-83
2023/06/04 07:11:31;;;;;;;5.07;2.42;;;;;;;13.88;60.97;102074.38;4967602;28;20066;-83
2023/06/04 07:13:56;;;;;;;3.75;2.47;;;;;;;14.00;59.92;102072.69;4951495;28;20050;-83
2023/06/04 07:16:21;;;;;;;3.28;2.17;;;;;;;14.09;59.73;102072.09;4951074;28;20035;-82
2023/06/04 07:18:50;;;;;;;5.55;2.60;;;;;;;14.20;60.14;102066.75;4953454;28;20039;-83
2023/06/04 07:21:16;;;;;;;3.97;2.70;;;;;;;14.37;58.48;102078.41;4951519;28;20035;-84
2023/06/04 07:23:41;;;;;;;3.80;2.50;;;;;;;14.52;57.59;102072.78;4934805;29;20061;-83
2023/06/04 07:26:08;;;;;;;4.85;2.38;;;;;;;14.65;57.84;102074.66;4951970;28;20050;-83
2023/06/04 07:28:33;;;;;;;7.82;2.63;;;;;;;14.71;59.20;102071.50;4966892;28;20374;-83
2023/06/04 07:30:58;;;;;;;7.93;2.90;;;;;;;14.84;59.44;102071.50;4957698;28;20050;-84
2023/06/04 07:33:24;;;;;;;4.18;2.47;;;;;;;14.91;58.63;102073.69;4952619;28;20038;-83
2023/06/04 07:35:50;;;;;;;3.30;2.42;;;;;;;15.02;54.92;102068.34;4961363;28;20055;-84
2023/06/04 07:38:16;;;;;;;4.25;2.30;;;;;;;15.12;55.35;102074.03;4951685;29;20042;-82
2023/06/04 07:40:42;;;;;;;4.80;2.47;;;;;;;15.18;56.28;102069.97;4950342;29;20031;-83
2023/06/04 07:43:07;;;;;;;3.88;2.33;;;;;;;15.27;54.94;102072.91;4950879;29;20035;-83
2023/06/04 07:45:32;;;;;;;3.53;2.38;;;;;;;15.37;55.97;102075.84;4951456;28;20088;-83
2023/06/04 07:47:58;;;;;;;4.95;2.22;;;;;;;15.43;54.60;102075.41;4970113;28;20035;-83
2023/06/04 07:50:24;;;;;;;3.85;2.75;;;;;;;15.54;56.35;102074.63;4966035;28;20101;-84
2023/06/04 07:52:50;;;;;;;3.53;2.40;;;;;;;15.63;50.90;102075.81;4966965;28;20031;-84
2023/06/04 07:55:15;;;;;;;5.07;2.47;;;;;;;15.74;51.21;102085.03;4966925;28;20042;-83
2023/06/04 07:57:41;;;;;;;8.27;2.17;;;;;;;15.84;52.01;102081.59;4949982;29;20286;-83
2023/06/04 08:00:08;;;;;;;4.32;2.03;;;;;;;15.93;48.79;102073.53;4952263;28;20031;-82
2023/06/04 08:02:39;;;;;;;8.35;2.60;;;;;;;16.15;52.46;102077.41;4951987;28;20071;-83
2023/06/04 08:05:05;;;;;;;4.38;2.40;;;;;;;16.54;54.10;102070.69;4951171;28;20039;-83
2023/06/04 08:07:30;;;;;;;4.70;2.33;;;;;;;16.85;47.97;102076.59;4952670;28;20035;-83
2023/06/04 08:09:56;;;;;;;3.85;2.30;;;;;;;17.18;48.56;102076.63;4968953;28;20039;-82
2023/06/04 08:12:22;;;;;;;4.78;2.15;;;;;;;17.44;45.28;102081.88;4971251;28;20094;-83
2023/06/04 08:14:47;;;;;;;2.55;1.88;;;;;;;18.09;48.91;102061.75;4970384;28;20039;-83
2023/06/04 08:17:14;;;;;;;8.38;2.10;;;;;;;18.88;45.09;102072.44;4950779;28;20050;-82
2023/06/04 08:19:40;;;;;;;3.50;1.88;;;;;;;19.06;42.03;102066.16;4950605;28;20402;-83
2023/06/04 08:22:06;;;;;;;4.50;1.88;;;;;;;19.26;42.85;102072.69;4950362;28;20039;-83
2023/06/04 08:24:31;;;;;;;4.13;2.22;;;;;;;19.46;42.58;102070.88;4950809;28;20037;-82
2023/06/04 08:26:57;;;;;;;2.00;1.40;;;;;;;20.33;43.66;102078.50;4952203;28;20039;-82
2023/06/04 08:29:22;;;;;;;3.33;1.67;;;;;;;20.84;41.70;102072.72;4950782;29;20118;-82
2023/06/04 08:31:47;;;;;;;6.70;2.10;;;;;;;21.25;41.64;102080.75;4950010;29;20126;-83
2023/06/04 08:34:13;;;;;;;4.53;1.98;;;;;;;22.05;38.02;102065.38;4949604;28;20126;-82
2023/06/04 08:36:38;;;;;;;4.72;1.92;;;;;;;22.34;36.60;102079.94;4959194;28;20039;-84
2023/06/04 08:39:04;;;;;;;4.65;2.17;;;;;;;21.99;36.39;102080.72;4966034;28;20031;-83
2023/06/04 08:41:41;;;;;;;3.67;1.80;;;;;;;21.95;38.73;102081.19;4951277;28;20041;-83
2023/06/04 08:44:07;;;;;;;4.18;1.58;;;;;;;22.40;38.06;102067.34;4951187;28;20047;-83
2023/06/04 08:46:32;;;;;;;2.33;1.52;;;;;;;22.94;36.65;102081.16;4950255;28;20030;-82
2023/06/04 08:49:02;;;;;;;4.15;1.63;;;;;;;22.96;33.19;102068.88;4949721;28;20465;-83
2023/06/04 08:51:28;;;;;;;3.38;1.23;;;;;;;23.36;33.97;102073.84;4951568;28;20526;-84
2023/06/04 08:53:57;;;;;;;2.20;1.40;;;;;;;23.45;32.00;102071.94;4950911;28;20039;-81
2023/06/04 08:56:22;;;;;;;1.73;1.38;;;;;;;23.70;33.63;102080.44;4950601;28;20541;-84
2023/06/04 08:58:48;;;;;;;4.28;1.60;;;;;;;24.07;33.50;102078.16;4965818;28;20031;-84
2023/06/04 09:01:14;;;;;;;3.67;1.20;;;;;;;24.12;31.99;102081.28;4964397;28;20050;-83
2023/06/04 09:03:40;;;;;;;2.28;1.42;;;;;;;23.83;27.92;102083.63;4969602;28;20034;-83
2023/06/04 09:06:06;;;;;;;3.63;1.42;;;;;;;23.61;28.79;102085.06;4970176;28;20050;-84
2023/06/04 09:08:36;;;;;;;2.10;1.30;;;;;;;23.62;31.23;102082.09;4960377;28;20089;-83
2023/06/04 09:11:05;;;;;;;3.85;1.40;;;;;;;24.24;31.04;102081.81;4949001;29;20039;-85
2023/06/04 09:13:32;;;;;;;2.85;1.13;;;;;;;24.71;28.55;102072.84;4949473;28;20051;-84
2023/06/04 09:16:05;;;;;;;3.35;1.00;;;;;;;25.01;30.99;102082.41;4950633;28;20066;-84
2023/06/04 09:18:32;;;;;;;3.75;1.17;;;;;;;24.90;29.13;102078.09;4958621;28;20122;-84
2023/06/04 09:21:08;;;;;;;4.25;1.17;;;;;;;25.04;29.55;102092.31;4950982;28;20031;-84
2023/06/04 09:23:44;;;;;;;1.92;1.30;;;;;;;25.03;28.98;102079.44;4967515;28;20863;-84
2023/06/04 09:26:10;;;;;;;3.45;1.05;;;;;;;25.12;26.83;102084.84;4967391;28;20446;-83
2023/06/04 09:28:39;;;;;;;7.85;1.45;;;;;;;25.36;25.94;102074.72;4952345;28;20128;-83
2023/06/04 09:31:17;;;;;;;12.73;1.30;;;;;;;25.58;27.44;102089.81;4959933;28;20039;-84
2023/06/04 09:33:47;;;;;;;1.85;1.00;;;;;;;25.68;26.65;102080.16;4966050;28;20502;-83
2023/06/04 09:36:12;;;;;;;1.50;1.10;;;;;;;26.10;27.27;102087.31;4949383;29;20046;-83
2023/06/04 09:38:38;;;;;;;4.05;1.17;;;;;;;26.15;26.99;102081.19;4950488;28;20475;-82
2023/06/04 09:41:14;;;;;;;9.73;1.30;;;;;;;25.84;25.92;102076.50;4950999;28;20361;-83
2023/06/04 09:43:40;;;;;;;3.00;1.10;;;;;;;26.01;27.98;102079.19;4949366;29;20047;-82
2023/06/04 09:46:16;;;;;;;1.98;1.30;;;;;;;25.74;29.14;102078.59;4957243;28;20534;-83
2023/06/04 09:48:42;;;;;;;3.15;1.05;;;;;;;25.46;26.62;102072.63;4954849;28;20139;-83
2023/06/04 09:51:15;;;;;;;4.63;1.20;;;;;;;25.42;23.88;102066.53;4969253;28;20039;-84
2023/06/04 09:53:40;;;;;;;1.90;1.02;;;;;;;25.06;24.63;102084.69;4969394;28;20042;-84
2023/06/04 09:56:08;;;;;;;2.00;1.10;;;;;;;25.25;27.86;102077.88;4952789;29;20031;-84
2023/06/04 09:58:34;;;;;;;4.15;1.40;;;;;;;25.60;29.93;102076.53;4953902;28;20045;-82
2023/06/04 10:01:02;;;;;;;1.92;1.20;;;;;;;25.85;26.00;102077.34;4942225;28;20491;-83
2023/06/04 10:03:48;;;;;;;1.90;1.10;;;;;;;26.22;26.52;102075.75;4955344;28;20043;-83
2023/06/04 10:06:15;;;;;;;7.03;1.13;;;;;;;25.97;24.83;102059.16;4953853;28;20094;-83
2023/06/04 10:08:42;;;;;;;1.63;0.98;;;;;;;25.82;25.51;102070.22;4970838;28;20734;-83
2023/06/04 10:11:09;;;;;;;1.40;0.90;;;;;;;25.89;26.90;102071.25;4971331;28;20038;-83
2023/06/04 10:13:55;;;;;;;2.63;1.15;;;;;;;26.35;27.98;102067.66;4965611;28;20147;-84
2023/06/04 10:16:21;;;;;;;2.80;1.10;;;;;;;26.45;24.96;102060.81;4959548;28;20483;-83
2023/06/04 10:18:47;;;;;;;2.55;1.40;;;;;;;26.60;24.89;102060.84;4954142;28;20534;-83
2023/06/04 10:21:14;;;;;;;5.68;1.20;;;;;;;26.90;25.63;102061.78;4962677;28;20035;-83
2023/06/04 10:23:41;;;;;;;1.13;0.75;;;;;;;27.20;26.58;102056.31;4952704;29;20120;-84
2023/06/04 10:26:07;;;;;;;1.95;1.25;;;;;;;26.99;23.87;102070.09;4951546;28;20050;-83
2023/06/04 10:28:33;;;;;;;2.78;1.17;;;;;;;26.08;23.24;102069.91;4968546;28;20031;-83
2023/06/04 10:30:58;;;;;;;3.15;1.00;;;;;;;25.68;28.28;102063.44;4963149;28;20039;-82
2023/06/04 10:33:24;;;;;;;3.40;1.20;;;;;;;25.72;25.10;102061.16;4968469;28;20046;-83
2023/06/04 10:35:53;;;;;;;3.03;1.15;;;;;;;25.87;25.67;102062.16;4952542;28;20043;-83
2023/06/04 10:38:20;;;;;;;2.72;1.00;;;;;;;26.33;25.57;102066.97;4952936;28;20491;-84
2023/06/04 10:40:46;;;;;;;1.30;1.08;;;;;;;26.65;24.78;102065.88;4942528;29;20047;-82
2023/06/04 10:43:13;;;;;;;4.63;1.05;;;;;;;26.62;24.11;102071.81;4951212;28;20043;-83
2023/06/04 10:45:40;;;;;;;2.28;1.20;;;;;;;26.55;23.91;102074.50;4956357;28;20047;-84
2023/06/04 10:48:07;;;;;;;2.53;1.15;;;;;;;26.53;27.06;102071.00;4953852;28;20051;-84
2023/06/04 10:50:34;;;;;;;3.50;1.10;;;;;;;26.51;26.28;102061.97;4968266;28;20038;-84
2023/06/04 10:53:02;;;;;;;5.07;1.30;;;;;;;26.15;23.49;102076.47;4953559;28;20101;-83
2023/06/04 10:55:29;;;;;;;4.50;1.27;;;;;;;26.43;25.41;102070.41;4952602;28;20467;-83
2023/06/04 10:57:56;;;;;;;1.88;1.13;;;;;;;26.66;23.62;102070.41;4951570;28;20524;-82
2023/06/04 11:00:22;;;;;;;3.53;1.15;;;;;;;26.60;23.42;102079.53;4936383;28;20037;-83
2023/06/04 11:02:55;;;;;;;3.58;1.10;;;;;;;26.27;23.09;102082.53;4953476;28;20039;-83
2023/06/04 11:05:21;;;;;;;1.95;1.30;;;;;;;26.28;25.53;102075.88;4952323;29;20039;-83
2023/06/04 11:07:48;;;;;;;4.82;1.30;;;;;;;26.50;25.65;102070.53;4952447;28;20376;-83
2023/06/04 11:10:15;;;;;;;4.82;1.20;;;;;;;26.51;25.59;102066.69;4952695;28;20050;-83
2023/06/04 11:12:42;;;;;;;3.25;1.30;;;;;;;26.51;25.56;102072.28;4950732;29;20665;-84
2023/06/04 11:15:08;;;;;;;3.85;1.42;;;;;;;26.90;27.68;102055.34;4951892;28;20505;-82
2023/06/04 11:17:33;;;;;;;2.70;1.38;;;;;;;27.10;25.20;102051.00;4956865;28;20043;-82
2023/06/04 11:20:00;;;;;;;3.45;1.20;;;;;;;27.29;25.01;102057.94;4951207;28;20043;-84
2023/06/04 11:22:25;;;;;;;1.20;1.10;;;;;;;27.19;23.85;102054.56;4952911;28;20066;-82
2023/06/04 11:24:58;;;;;;;3.65;1.20;;;;;;;27.28;24.76;102044.16;4955670;28;20470;-83